Time;durP1;ratioP1;P1;durP2;ratioP2;P2;SDS_P1;SDS_P2;PMS_P1;PMS_P2;Temp;Humidity;BMP_temperature;BMP_pressure;BME280_temperature;BME280_humidity;BME280_pressure;Samples;Min_cycle;Max_cycle;Signal;HPM_P1;HPM_P2
2023/12/23 00:01:28;;;;;;;4.67;1.60;;;;;;;;;;5092008;28;20474;-71
2023/12/23 00:03:55;;;;;;;4.30;1.97;;;;;;;;;;5075854;28;20474;-71
2023/12/23 00:06:39;;;;;;;3.67;1.40;;;;;;;;;;5076488;28;20440;-71
2023/12/23 00:09:06;;;;;;;3.67;1.30;;;;;;;;;;5075991;28;20430;-71
2023/12/23 00:11:50;;;;;;;4.10;1.43;;;;;;;;;;5077431;28;20405;-71
2023/12/23 00:14:17;;;;;;;4.77;1.63;;;;;;;;;;5074658;28;20455;-71
2023/12/23 00:17:01;;;;;;;2.60;1.50;;;;;;;;;;5060586;28;20417;-71
2023/12/23 00:19:30;;;;;;;3.37;1.40;;;;;;;;;;5058540;28;20411;-72
2023/12/23 00:21:57;;;;;;;6.10;1.60;;;;;;;;;;5041211;28;20552;-71
2023/12/23 00:24:29;;;;;;;4.97;1.60;;;;;;;;;;5075272;28;20991;-71
2023/12/23 00:26:57;;;;;;;1.70;1.00;;;;;;;;;;5076523;28;20409;-72
2023/12/23 00:29:24;;;;;;;4.93;1.40;;;;;;;;;;5074369;28;20420;-71
2023/12/23 00:31:51;;;;;;;3.93;1.47;;;;;;;;;;5058267;28;20764;-71
2023/12/23 00:34:18;;;;;;;4.77;1.63;;;;;;;;;;5074670;28;20798;-71
2023/12/23 00:36:45;;;;;;;4.17;1.50;;;;;;;;;;5044387;28;20531;-72
2023/12/23 00:39:12;;;;;;;5.33;1.50;;;;;;;;;;5061980;28;20423;-71
2023/12/23 00:41:40;;;;;;;4.97;1.20;;;;;;;;;;5077807;28;20434;-71
2023/12/23 00:44:24;;;;;;;1.90;0.90;;;;;;;;;;5095775;28;20429;-71
2023/12/23 00:46:51;;;;;;;3.23;1.30;;;;;;;;;;5077636;28;20534;-72
2023/12/23 00:49:35;;;;;;;6.43;1.40;;;;;;;;;;5081110;28;20382;-71
2023/12/23 00:52:01;;;;;;;1.93;0.90;;;;;;;;;;5095620;28;20914;-72
2023/12/23 00:54:46;;;;;;;2.77;1.03;;;;;;;;;;5094808;28;20499;-72
2023/12/23 00:57:13;;;;;;;2.43;1.10;;;;;;;;;;5077767;28;20418;-71
2023/12/23 00:59:40;;;;;;;3.07;1.07;;;;;;;;;;5061262;28;20429;-72
2023/12/23 01:02:07;;;;;;;2.03;1.00;;;;;;;;;;5095592;28;20489;-71
2023/12/23 01:04:33;;;;;;;1.73;0.73;;;;;;;;;;5095727;28;20443;-72
2023/12/23 01:07:02;;;;;;;3.20;1.13;;;;;;;;;;5061108;28;20439;-72
2023/12/23 01:09:30;;;;;;;1.43;0.87;;;;;;;;;;5077449;28;20431;-72
2023/12/23 01:11:56;;;;;;;1.77;0.87;;;;;;;;;;5095404;28;20410;-72
2023/12/23 01:47:32;;;;;;;2.50;0.97;;;;;;;;;;4718373;28;20887;-71
2023/12/23 01:49:59;;;;;;;4.13;0.87;;;;;;;;;;5056307;28;20436;-72
2023/12/23 01:52:26;;;;;;;2.87;1.03;;;;;;;;;;5056449;28;20527;-70
2023/12/23 01:54:52;;;;;;;1.53;0.83;;;;;;;;;;5072003;28;20463;-72
2023/12/23 02:01:13;;;;;;;6.27;1.30;;;;;;;;;;5074207;28;20376;-72
2023/12/23 02:03:57;;;;;;;2.70;0.80;;;;;;;;;;5089442;28;20507;-72
2023/12/23 02:06:24;;;;;;;6.07;1.40;;;;;;;;;;5073609;28;20808;-71
2023/12/23 02:08:51;;;;;;;6.00;1.40;;;;;;;;;;5056807;28;20427;-72
2023/12/23 02:11:27;;;;;;;7.67;1.27;;;;;;;;;;5039832;28;20458;-72
2023/12/23 02:13:58;;;;;;;4.00;1.07;;;;;;;;;;5074548;28;20389;-71
2023/12/23 02:16:25;;;;;;;3.63;1.13;;;;;;;;;;5072005;28;20389;-71
2023/12/23 02:18:52;;;;;;;6.37;1.57;;;;;;;;;;5052376;28;20472;-71
2023/12/23 02:21:19;;;;;;;3.53;1.10;;;;;;;;;;5068874;28;20468;-71
2023/12/23 02:23:46;;;;;;;7.37;1.70;;;;;;;;;;5051478;28;20544;-71
2023/12/23 02:26:17;;;;;;;7.77;2.13;;;;;;;;;;5069149;28;20466;-72
2023/12/23 02:28:44;;;;;;;5.10;1.63;;;;;;;;;;5052164;28;20417;-72
2023/12/23 02:31:11;;;;;;;4.30;1.07;;;;;;;;;;5053952;28;20555;-72
2023/12/23 02:33:38;;;;;;;2.70;0.80;;;;;;;;;;5052728;28;20500;-71
2023/12/23 02:36:05;;;;;;;4.53;1.30;;;;;;;;;;5052326;28;20516;-72
2023/12/23 02:38:31;;;;;;;4.47;1.50;;;;;;;;;;5052476;28;20471;-71
2023/12/23 02:40:58;;;;;;;3.93;1.57;;;;;;;;;;5053884;28;20430;-72
2023/12/23 02:43:25;;;;;;;3.87;1.27;;;;;;;;;;5069193;28;20429;-72
2023/12/23 02:45:51;;;;;;;6.87;2.13;;;;;;;;;;5052438;28;20453;-73
2023/12/23 02:48:18;;;;;;;4.37;1.60;;;;;;;;;;5065880;28;20451;-72
2023/12/23 02:50:45;;;;;;;5.07;2.20;;;;;;;;;;5073338;28;20426;-71
2023/12/23 02:53:12;;;;;;;5.80;2.00;;;;;;;;;;5055674;28;20440;-72
2023/12/23 02:55:39;;;;;;;7.37;2.00;;;;;;;;;;5055374;28;20436;-72
2023/12/23 02:58:23;;;;;;;6.40;2.00;;;;;;;;;;5059077;28;20395;-71
2023/12/23 03:00:50;;;;;;;6.00;1.70;;;;;;;;;;5055574;28;20420;-72
2023/12/23 03:03:35;;;;;;;5.90;1.77;;;;;;;;;;5072011;28;20417;-73
2023/12/23 03:06:02;;;;;;;3.67;1.63;;;;;;;;;;5073516;28;20457;-72
2023/12/23 03:08:29;;;;;;;2.47;1.23;;;;;;;;;;5060003;28;20501;-71
2023/12/23 03:10:57;;;;;;;3.03;1.43;;;;;;;;;;5076487;28;20420;-71
2023/12/23 03:13:24;;;;;;;4.00;1.03;;;;;;;;;;5059768;28;20988;-73
2023/12/23 03:15:51;;;;;;;4.57;1.30;;;;;;;;;;5075826;28;20514;-71
2023/12/23 03:18:17;;;;;;;3.10;0.67;;;;;;;;;;5075926;28;20467;-72
2023/12/23 03:20:45;;;;;;;2.83;0.90;;;;;;;;;;5077635;28;20444;-74
2023/12/23 03:23:29;;;;;;;3.40;0.70;;;;;;;;;;5045120;28;20392;-73
2023/12/23 03:25:55;;;;;;;1.87;0.40;;;;;;;;;;5076583;28;20453;-72
2023/12/23 03:28:22;;;;;;;2.03;0.70;;;;;;;;;;5059296;28;20460;-74
2023/12/23 03:30:49;;;;;;;1.23;0.57;;;;;;;;;;5076657;28;20783;-73
2023/12/23 03:33:16;;;;;;;4.40;0.63;;;;;;;;;;5076943;28;20485;-73
2023/12/23 03:36:01;;;;;;;5.10;0.50;;;;;;;;;;5075965;28;20410;-74
2023/12/23 03:38:30;;;;;;;4.07;0.77;;;;;;;;;;5077299;28;20428;-72
2023/12/23 03:40:57;;;;;;;3.70;0.87;;;;;;;;;;5058693;28;20915;-73
2023/12/23 03:43:24;;;;;;;5.63;0.50;;;;;;;;;;5075525;28;20452;-73
2023/12/23 03:45:50;;;;;;;3.60;0.60;;;;;;;;;;5075346;28;20513;-74
2023/12/23 03:48:35;;;;;;;3.93;0.90;;;;;;;;;;5044695;28;20444;-73
2023/12/23 03:51:02;;;;;;;4.70;0.80;;;;;;;;;;5075437;28;20798;-73
2023/12/23 03:53:46;;;;;;;3.03;0.67;;;;;;;;;;5061862;28;20475;-73
2023/12/23 03:56:13;;;;;;;3.47;0.50;;;;;;;;;;5042283;28;20409;-73
2023/12/23 03:58:40;;;;;;;1.83;0.50;;;;;;;;;;5041740;28;20430;-73
2023/12/23 04:01:07;;;;;;;3.27;0.60;;;;;;;;;;5075258;28;20464;-72
2023/12/23 04:03:34;;;;;;;5.37;1.17;;;;;;;;;;5042147;28;20482;-72
2023/12/23 04:06:02;;;;;;;3.17;0.60;;;;;;;;;;5042010;28;20460;-73
2023/12/23 04:08:29;;;;;;;1.83;0.70;;;;;;;;;;5074914;28;20436;-72
2023/12/23 04:10:56;;;;;;;1.43;1.00;;;;;;;;;;5041416;28;20439;-73
2023/12/23 04:13:40;;;;;;;6.17;0.70;;;;;;;;;;5061416;28;20442;-72
2023/12/23 04:16:07;;;;;;;1.63;0.40;;;;;;;;;;5076276;28;20414;-73
2023/12/23 04:18:33;;;;;;;1.97;0.40;;;;;;;;;;5057094;28;20456;-72
2023/12/23 04:21:00;;;;;;;4.13;0.73;;;;;;;;;;5074750;28;20498;-72
2023/12/23 04:23:27;;;;;;;0.67;0.27;;;;;;;;;;5057923;28;20482;-72
2023/12/23 04:26:13;;;;;;;2.90;0.73;;;;;;;;;;5076476;28;20674;-72
2023/12/23 04:28:41;;;;;;;4.93;1.07;;;;;;;;;;5075558;28;20444;-72
2023/12/23 04:31:08;;;;;;;2.37;0.60;;;;;;;;;;5076043;28;20410;-72
2023/12/23 04:33:35;;;;;;;2.27;0.50;;;;;;;;;;5057987;28;20846;-72
2023/12/23 04:36:03;;;;;;;5.37;1.17;;;;;;;;;;5074221;28;20473;-72
2023/12/23 04:38:30;;;;;;;2.80;0.70;;;;;;;;;;5074334;28;20481;-71
2023/12/23 04:40:57;;;;;;;4.23;0.97;;;;;;;;;;5074572;28;20457;-72
2023/12/23 04:43:24;;;;;;;2.83;0.53;;;;;;;;;;5057744;28;20447;-72
2023/12/23 04:46:08;;;;;;;4.60;0.73;;;;;;;;;;5075737;28;20440;-73
2023/12/23 04:48:35;;;;;;;2.57;0.70;;;;;;;;;;5057623;28;20449;-72
2023/12/23 04:51:19;;;;;;;1.13;0.70;;;;;;;;;;5075202;28;20895;-72
2023/12/23 04:53:45;;;;;;;1.87;0.90;;;;;;;;;;5074296;28;20901;-72
2023/12/23 04:56:29;;;;;;;4.60;1.00;;;;;;;;;;5074170;28;20413;-73
2023/12/23 04:58:56;;;;;;;4.77;0.87;;;;;;;;;;5074083;28;20443;-72
2023/12/23 05:01:40;;;;;;;3.37;1.07;;;;;;;;;;5057496;28;20413;-73
2023/12/23 05:04:08;;;;;;;6.20;1.33;;;;;;;;;;5073892;28;20432;-72
2023/12/23 05:06:35;;;;;;;4.63;0.77;;;;;;;;;;5057722;28;20776;-72
2023/12/23 05:09:02;;;;;;;1.43;0.20;;;;;;;;;;5075215;28;20513;-73
2023/12/23 05:11:29;;;;;;;5.00;0.90;;;;;;;;;;5074048;28;20440;-73
2023/12/23 05:13:57;;;;;;;1.97;0.60;;;;;;;;;;5074204;28;20523;-73
2023/12/23 05:16:25;;;;;;;0.90;0.37;;;;;;;;;;5073753;28;20412;-72
2023/12/23 05:18:51;;;;;;;4.00;0.90;;;;;;;;;;5040750;28;20728;-72
2023/12/23 05:21:18;;;;;;;2.60;0.67;;;;;;;;;;5056792;28;21000;-73
2023/12/23 05:23:45;;;;;;;6.77;1.00;;;;;;;;;;5073408;28;20478;-72
2023/12/23 05:26:16;;;;;;;2.10;0.70;;;;;;;;;;5056775;28;20464;-72
2023/12/23 05:28:43;;;;;;;3.07;0.83;;;;;;;;;;5057411;28;20424;-73
2023/12/23 05:31:09;;;;;;;4.83;0.80;;;;;;;;;;5056688;28;20424;-71
2023/12/23 05:33:36;;;;;;;1.80;0.40;;;;;;;;;;5040549;28;20799;-73
2023/12/23 05:36:03;;;;;;;4.20;0.70;;;;;;;;;;5074165;28;20976;-73
2023/12/23 05:38:30;;;;;;;5.60;0.80;;;;;;;;;;5073658;28;20531;-73
2023/12/23 05:40:57;;;;;;;1.87;0.80;;;;;;;;;;5074119;28;20424;-72
2023/12/23 05:43:25;;;;;;;5.33;1.57;;;;;;;;;;5057112;28;20818;-72
2023/12/23 05:45:51;;;;;;;5.43;1.07;;;;;;;;;;5072866;28;20447;-73
2023/12/23 05:48:18;;;;;;;4.93;0.90;;;;;;;;;;5056531;28;20456;-72
2023/12/23 05:50:45;;;;;;;7.30;1.20;;;;;;;;;;5074306;28;20760;-72
2023/12/23 05:53:12;;;;;;;5.70;1.03;;;;;;;;;;5040053;28;20460;-73
2023/12/23 05:55:39;;;;;;;6.63;1.27;;;;;;;;;;5056144;28;20920;-71
2023/12/23 05:58:06;;;;;;;6.87;1.30;;;;;;;;;;5056476;28;20493;-72
2023/12/23 06:00:33;;;;;;;7.30;1.07;;;;;;;;;;5073819;28;20421;-71
2023/12/23 06:02:59;;;;;;;9.70;1.77;;;;;;;;;;5073045;28;20433;-72
2023/12/23 06:05:26;;;;;;;5.30;1.00;;;;;;;;;;5039608;28;20420;-73
2023/12/23 06:07:53;;;;;;;3.73;0.77;;;;;;;;;;5073890;28;20832;-72
2023/12/23 06:10:20;;;;;;;4.40;1.13;;;;;;;;;;5073547;28;20922;-71
2023/12/23 06:12:46;;;;;;;2.30;1.03;;;;;;;;;;5072315;28;20486;-72
2023/12/23 06:15:13;;;;;;;3.17;1.10;;;;;;;;;;5073807;28;20436;-73
2023/12/23 06:21:45;;;;;;;4.10;0.80;;;;;;;;;;5073887;28;20965;-75
2023/12/23 06:24:12;;;;;;;5.63;1.73;;;;;;;;;;5073947;28;20448;-75
2023/12/23 06:26:40;;;;;;;1.93;0.77;;;;;;;;;;5072834;28;20463;-75
2023/12/23 06:29:11;;;;;;;5.17;1.60;;;;;;;;;;5074472;28;20402;-75
2023/12/23 06:31:38;;;;;;;4.93;1.13;;;;;;;;;;5056125;28;20515;-75
2023/12/23 06:34:06;;;;;;;5.87;1.17;;;;;;;;;;5074087;28;20420;-74
2023/12/23 06:36:33;;;;;;;2.90;0.87;;;;;;;;;;5056063;28;20432;-74
2023/12/23 06:39:00;;;;;;;7.13;2.37;;;;;;;;;;5056150;28;20435;-74
2023/12/23 06:41:46;;;;;;;8.03;2.13;;;;;;;;;;5079055;28;20373;-74
2023/12/23 06:44:14;;;;;;;5.27;1.23;;;;;;;;;;5063555;28;20430;-75
2023/12/23 06:46:41;;;;;;;4.80;1.43;;;;;;;;;;5080365;28;20468;-74
2023/12/23 06:53:08;;;;;;;4.27;1.90;;;;;;;;;;5080760;28;20374;-73
2023/12/23 06:55:35;;;;;;;4.70;1.40;;;;;;;;;;5080962;28;20839;-73
2023/12/23 06:58:02;;;;;;;3.97;1.83;;;;;;;;;;5062541;28;20967;-74
2023/12/23 07:00:29;;;;;;;2.90;1.70;;;;;;;;;;5089826;28;20423;-71
2023/12/23 07:02:56;;;;;;;6.03;1.57;;;;;;;;;;5073094;28;20431;-72
2023/12/23 07:05:23;;;;;;;1.60;1.20;;;;;;;;;;5073350;28;20435;-75
2023/12/23 07:07:50;;;;;;;3.73;1.40;;;;;;;;;;5072638;28;21023;-73
2023/12/23 07:10:17;;;;;;;5.07;1.40;;;;;;;;;;5091427;28;20435;-72
2023/12/23 07:13:02;;;;;;;7.03;1.80;;;;;;;;;;5089881;28;20495;-72
2023/12/23 07:15:29;;;;;;;6.27;1.30;;;;;;;;;;5091324;28;20487;-70
2023/12/23 07:17:56;;;;;;;2.27;1.00;;;;;;;;;;5091354;28;20523;-71
2023/12/23 07:20:23;;;;;;;9.20;1.63;;;;;;;;;;5091076;28;20445;-72
2023/12/23 07:22:50;;;;;;;6.70;1.57;;;;;;;;;;5062152;28;20463;-71
2023/12/23 07:25:18;;;;;;;7.27;1.97;;;;;;;;;;5073481;28;20439;-72
2023/12/23 07:27:45;;;;;;;4.13;1.50;;;;;;;;;;5091398;28;20552;-69
2023/12/23 07:30:14;;;;;;;3.27;1.47;;;;;;;;;;5091213;28;20428;-72
2023/12/23 07:32:41;;;;;;;6.30;1.80;;;;;;;;;;5091511;28;20522;-72
2023/12/23 07:35:08;;;;;;;7.63;1.97;;;;;;;;;;5092079;28;20441;-71
2023/12/23 07:37:36;;;;;;;3.37;1.30;;;;;;;;;;5057717;28;20540;-74
2023/12/23 07:40:05;;;;;;;4.27;1.80;;;;;;;;;;5075796;28;20435;-74
2023/12/23 07:42:34;;;;;;;3.70;1.20;;;;;;;;;;5094337;28;20474;-76
2023/12/23 07:45:02;;;;;;;5.33;1.50;;;;;;;;;;5076036;28;20431;-75
2023/12/23 07:47:32;;;;;;;7.00;2.20;;;;;;;;;;5059777;28;20479;-75
2023/12/23 07:49:59;;;;;;;7.53;3.23;;;;;;;;;;5057918;28;20439;-74
2023/12/23 07:52:27;;;;;;;5.93;1.73;;;;;;;;;;5090902;28;20427;-72
2023/12/23 07:54:56;;;;;;;5.53;2.10;;;;;;;;;;5089641;28;20450;-73
2023/12/23 07:57:25;;;;;;;8.60;1.60;;;;;;;;;;5089974;28;20439;-73
2023/12/23 07:59:52;;;;;;;6.90;3.87;;;;;;;;;;5071582;28;20428;-72
2023/12/23 08:06:15;;;;;;;3.77;1.43;;;;;;;;;;5088544;28;20498;-73
2023/12/23 08:08:43;;;;;;;6.90;1.30;;;;;;;;;;5088647;28;20477;-74
2023/12/23 08:11:11;;;;;;;8.93;3.83;;;;;;;;;;5088826;28;20518;-73
2023/12/23 08:13:43;;;;;;;6.50;2.20;;;;;;;;;;5070919;28;20475;-72
2023/12/23 08:16:10;;;;;;;6.33;1.90;;;;;;;;;;5070357;28;20442;-74
2023/12/23 08:18:40;;;;;;;4.37;1.20;;;;;;;;;;5088957;28;20438;-75
2023/12/23 08:21:16;;;;;;;5.80;1.80;;;;;;;;;;5060193;28;20520;-73
2023/12/23 08:23:52;;;;;;;5.23;2.37;;;;;;;;;;5049861;28;20499;-73
2023/12/23 08:26:19;;;;;;;4.80;2.17;;;;;;;;;;5052794;28;20419;-73
2023/12/23 08:28:47;;;;;;;6.13;1.60;;;;;;;;;;5087325;28;20911;-72
2023/12/23 08:31:14;;;;;;;5.63;1.37;;;;;;;;;;5069846;28;20422;-76
2023/12/23 08:33:42;;;;;;;5.30;1.67;;;;;;;;;;5054691;28;20435;-72
2023/12/23 08:36:13;;;;;;;7.00;2.30;;;;;;;;;;5037798;28;20436;-73
2023/12/23 08:38:40;;;;;;;7.07;2.43;;;;;;;;;;5087953;28;20449;-73
2023/12/23 08:41:11;;;;;;;4.83;1.80;;;;;;;;;;5088869;28;20472;-72
2023/12/23 08:43:42;;;;;;;5.20;1.70;;;;;;;;;;5055616;28;20428;-71
2023/12/23 08:46:12;;;;;;;4.07;2.17;;;;;;;;;;5071201;28;20434;-74
2023/12/23 08:48:40;;;;;;;6.83;2.80;;;;;;;;;;5087654;28;20864;-75
2023/12/23 08:51:09;;;;;;;4.07;1.60;;;;;;;;;;5053970;28;20513;-71
2023/12/23 08:53:38;;;;;;;6.97;2.80;;;;;;;;;;5070637;28;20768;-72
2023/12/23 08:56:07;;;;;;;5.37;2.37;;;;;;;;;;5071507;28;20435;-74
2023/12/23 08:58:42;;;;;;;3.73;1.20;;;;;;;;;;5088389;28;20453;-72
2023/12/23 09:01:14;;;;;;;5.63;1.67;;;;;;;;;;5071441;28;20431;-73
2023/12/23 09:03:45;;;;;;;4.47;1.50;;;;;;;;;;5070533;28;20425;-73
2023/12/23 09:06:17;;;;;;;8.40;3.43;;;;;;;;;;5055302;28;20930;-72
2023/12/23 09:08:51;;;;;;;5.80;1.87;;;;;;;;;;5054031;28;20458;-73
2023/12/23 09:11:19;;;;;;;2.40;1.00;;;;;;;;;;5054390;28;20498;-73
2023/12/23 09:13:50;;;;;;;3.67;1.43;;;;;;;;;;5038990;28;20432;-74
2023/12/23 09:16:18;;;;;;;2.87;1.27;;;;;;;;;;5053194;28;20438;-73
2023/12/23 09:18:46;;;;;;;6.30;2.20;;;;;;;;;;5053561;28;20439;-72
2023/12/23 09:21:19;;;;;;;6.67;2.10;;;;;;;;;;5038860;28;20455;-74
2023/12/23 09:23:47;;;;;;;4.83;2.23;;;;;;;;;;5057702;28;20505;-72
2023/12/23 09:26:15;;;;;;;3.70;1.10;;;;;;;;;;5053892;28;20816;-72
2023/12/23 09:28:45;;;;;;;8.70;1.80;;;;;;;;;;5071265;28;20788;-73
2023/12/23 09:31:14;;;;;;;6.27;1.73;;;;;;;;;;5037409;28;20439;-72
2023/12/23 09:33:41;;;;;;;5.87;1.50;;;;;;;;;;5071049;28;20431;-71
2023/12/23 09:36:08;;;;;;;6.70;1.50;;;;;;;;;;5095097;28;20431;-71
2023/12/23 09:38:37;;;;;;;3.87;1.57;;;;;;;;;;5077795;28;20424;-71
2023/12/23 09:41:06;;;;;;;5.20;1.30;;;;;;;;;;5061480;28;20419;-72
2023/12/23 09:43:33;;;;;;;4.73;1.50;;;;;;;;;;5077354;28;20459;-72
2023/12/23 09:46:01;;;;;;;6.80;1.50;;;;;;;;;;5077647;28;20800;-71
2023/12/23 09:48:28;;;;;;;8.23;1.93;;;;;;;;;;5077031;28;20481;-72
2023/12/23 09:50:55;;;;;;;5.30;1.50;;;;;;;;;;5095385;28;20439;-71
2023/12/23 09:53:22;;;;;;;7.27;1.93;;;;;;;;;;5094600;28;20430;-71
2023/12/23 09:55:49;;;;;;;3.67;1.80;;;;;;;;;;5076875;28;20415;-71
2023/12/23 09:58:16;;;;;;;6.87;2.20;;;;;;;;;;5093703;28;20431;-71
2023/12/23 10:00:44;;;;;;;9.37;2.50;;;;;;;;;;5094703;28;20458;-71
2023/12/23 10:03:11;;;;;;;7.10;2.30;;;;;;;;;;5076502;28;20424;-67
2023/12/23 10:05:41;;;;;;;8.93;2.57;;;;;;;;;;5077341;28;20934;-67
2023/12/23 10:08:09;;;;;;;5.50;1.93;;;;;;;;;;5093258;28;20463;-67
2023/12/23 10:10:35;;;;;;;3.27;1.67;;;;;;;;;;5094010;28;20908;-67
2023/12/23 10:13:02;;;;;;;7.73;2.53;;;;;;;;;;5076630;28;20423;-67
2023/12/23 10:15:29;;;;;;;5.00;1.93;;;;;;;;;;5075767;28;20419;-65
2023/12/23 10:17:58;;;;;;;5.20;1.50;;;;;;;;;;5094188;28;20476;-67
2023/12/23 10:20:25;;;;;;;8.37;3.47;;;;;;;;;;5094332;28;20451;-67
2023/12/23 10:22:53;;;;;;;6.60;2.40;;;;;;;;;;5094039;28;20515;-71
2023/12/23 10:25:38;;;;;;;8.17;3.60;;;;;;;;;;5094751;28;20396;-76
2023/12/23 10:28:06;;;;;;;12.07;6.20;;;;;;;;;;5059763;28;20497;-76
2023/12/23 10:30:50;;;;;;;6.53;2.20;;;;;;;;;;5094926;28;20738;-77
2023/12/23 10:33:17;;;;;;;7.17;2.03;;;;;;;;;;5094465;28;20514;-77
2023/12/23 10:35:45;;;;;;;7.53;2.50;;;;;;;;;;5094827;28;20462;-77
2023/12/23 10:38:21;;;;;;;6.00;3.10;;;;;;;;;;5060138;28;20778;-76
2023/12/23 10:41:09;;;;;;;12.77;5.37;;;;;;;;;;5077424;28;20905;-75
2023/12/23 10:43:36;;;;;;;13.73;6.50;;;;;;;;;;5046551;28;20741;-76
2023/12/23 10:46:03;;;;;;;4.87;1.90;;;;;;;;;;5076473;28;20435;-76
2023/12/23 10:48:30;;;;;;;6.63;2.00;;;;;;;;;;5076419;28;20468;-76
2023/12/23 10:50:57;;;;;;;9.77;2.43;;;;;;;;;;5076502;28;20484;-77
2023/12/23 10:53:26;;;;;;;5.30;2.93;;;;;;;;;;5076738;28;20501;-77
2023/12/23 10:55:53;;;;;;;8.83;3.40;;;;;;;;;;5075961;28;20945;-77
2023/12/23 10:58:20;;;;;;;5.97;2.77;;;;;;;;;;5059617;28;20495;-76
2023/12/23 11:00:47;;;;;;;4.67;2.23;;;;;;;;;;5076736;28;20505;-77
2023/12/23 11:03:15;;;;;;;4.40;1.90;;;;;;;;;;5076295;28;20977;-78
2023/12/23 11:05:42;;;;;;;4.50;1.63;;;;;;;;;;5077231;28;20418;-76
2023/12/23 11:08:11;;;;;;;2.27;1.30;;;;;;;;;;5097119;28;20479;-77
2023/12/23 11:10:43;;;;;;;5.57;2.13;;;;;;;;;;5082660;28;20397;-73
2023/12/23 11:13:28;;;;;;;13.50;4.67;;;;;;;;;;5096663;28;20380;-75
2023/12/23 11:15:57;;;;;;;5.17;2.37;;;;;;;;;;5096247;28;20450;-75
2023/12/23 11:18:28;;;;;;;7.67;2.43;;;;;;;;;;5079673;28;20440;-73
2023/12/23 11:20:58;;;;;;;5.87;1.90;;;;;;;;;;5096220;28;20545;-75
2023/12/23 11:23:35;;;;;;;11.07;3.70;;;;;;;;;;5077684;28;20521;-75
2023/12/23 11:26:30;;;;;;;30.90;10.93;;;;;;;;;;5047594;28;20781;-76
2023/12/23 11:29:15;;;;;;;6.57;3.63;;;;;;;;;;5098603;28;20882;-77
2023/12/23 11:31:42;;;;;;;7.73;2.57;;;;;;;;;;5099339;28;20851;-76
2023/12/23 11:34:13;;;;;;;6.37;2.70;;;;;;;;;;5082127;28;20419;-73
2023/12/23 11:36:41;;;;;;;5.43;2.80;;;;;;;;;;5081873;28;20431;-73
2023/12/23 11:39:11;;;;;;;5.57;2.03;;;;;;;;;;5082958;28;20518;-74
2023/12/23 11:41:38;;;;;;;12.43;4.37;;;;;;;;;;5099718;28;20419;-74
2023/12/23 11:44:07;;;;;;;5.50;1.80;;;;;;;;;;5081436;28;20437;-75
2023/12/23 11:46:34;;;;;;;6.97;2.53;;;;;;;;;;5082277;28;20438;-73
2023/12/23 11:49:02;;;;;;;6.23;2.63;;;;;;;;;;5060668;28;20487;-73
2023/12/23 11:51:30;;;;;;;6.50;2.20;;;;;;;;;;5077541;28;20435;-73
2023/12/23 11:53:56;;;;;;;3.37;1.50;;;;;;;;;;5076497;28;20407;-73
2023/12/23 11:56:26;;;;;;;4.17;1.50;;;;;;;;;;5079965;28;20912;-73
2023/12/23 11:58:53;;;;;;;4.83;1.93;;;;;;;;;;5061771;28;20424;-74
2023/12/23 12:01:26;;;;;;;5.63;1.87;;;;;;;;;;5078332;28;20764;-74
2023/12/23 12:04:00;;;;;;;5.57;2.40;;;;;;;;;;5062603;28;20478;-75
2023/12/23 12:06:37;;;;;;;5.67;1.70;;;;;;;;;;5077064;28;20454;-74
2023/12/23 12:09:13;;;;;;;2.60;1.30;;;;;;;;;;5062826;28;20467;-73
2023/12/23 12:11:44;;;;;;;3.10;1.50;;;;;;;;;;5080484;28;20761;-76
2023/12/23 12:14:18;;;;;;;2.70;1.47;;;;;;;;;;5077266;28;20384;-73
2023/12/23 12:16:47;;;;;;;10.33;2.80;;;;;;;;;;5060212;28;20907;-74
2023/12/23 12:19:15;;;;;;;4.70;1.60;;;;;;;;;;5087999;28;20490;-73
2023/12/23 12:21:43;;;;;;;5.87;2.37;;;;;;;;;;5076660;28;20445;-73
2023/12/23 12:24:10;;;;;;;5.83;2.70;;;;;;;;;;5077452;28;20761;-73
2023/12/23 12:26:38;;;;;;;8.57;3.63;;;;;;;;;;5077000;28;20409;-72
2023/12/23 12:29:07;;;;;;;8.03;3.27;;;;;;;;;;5060311;28;20490;-73
2023/12/23 12:31:34;;;;;;;4.07;1.80;;;;;;;;;;5076115;28;20553;-73
2023/12/23 12:34:03;;;;;;;4.80;2.00;;;;;;;;;;5076304;28;20897;-73
2023/12/23 12:36:33;;;;;;;4.20;1.83;;;;;;;;;;5027563;28;20460;-77
2023/12/23 12:39:06;;;;;;;4.87;1.80;;;;;;;;;;5080599;28;20899;-72
2023/12/23 12:41:41;;;;;;;8.27;3.13;;;;;;;;;;5048759;28;20439;-73
2023/12/23 12:44:09;;;;;;;5.23;2.00;;;;;;;;;;5065696;28;20432;-73
2023/12/23 12:46:38;;;;;;;8.53;3.63;;;;;;;;;;5067364;28;20431;-72
2023/12/23 12:49:06;;;;;;;5.23;2.80;;;;;;;;;;5049084;28;20559;-72
2023/12/23 12:51:36;;;;;;;15.07;7.60;;;;;;;;;;5049534;28;20428;-73
2023/12/23 12:54:07;;;;;;;29.23;10.97;;;;;;;;;;5049282;28;20476;-75
2023/12/23 12:56:37;;;;;;;5.97;1.87;;;;;;;;;;5048736;28;20486;-70
2023/12/23 12:59:09;;;;;;;4.87;2.40;;;;;;;;;;5049321;28;20455;-69
2023/12/23 13:01:41;;;;;;;8.27;3.90;;;;;;;;;;5049523;28;20463;-75
2023/12/23 13:04:10;;;;;;;12.67;3.87;;;;;;;;;;5049071;28;20436;-72
2023/12/23 13:06:42;;;;;;;15.97;6.50;;;;;;;;;;5048569;28;20526;-71
2023/12/23 13:09:10;;;;;;;6.53;2.70;;;;;;;;;;5064683;28;20980;-73
2023/12/23 13:11:40;;;;;;;6.77;2.87;;;;;;;;;;5066335;28;21815;-74
2023/12/23 13:14:26;;;;;;;10.13;3.50;;;;;;;;;;5067457;28;20414;-74
2023/12/23 13:16:55;;;;;;;20.03;8.30;;;;;;;;;;5049887;28;20461;-73
2023/12/23 13:19:21;;;;;;;6.30;3.00;;;;;;;;;;5081999;28;20444;-74
2023/12/23 13:21:50;;;;;;;5.93;2.47;;;;;;;;;;5066006;28;20530;-76
2023/12/23 13:24:23;;;;;;;4.10;1.83;;;;;;;;;;5066863;28;20532;-73
2023/12/23 13:26:53;;;;;;;7.43;3.00;;;;;;;;;;5049547;28;20444;-73
2023/12/23 13:29:21;;;;;;;3.80;1.80;;;;;;;;;;5064727;28;21001;-73
2023/12/23 13:31:52;;;;;;;6.83;3.00;;;;;;;;;;5049905;28;20440;-73
2023/12/23 13:34:39;;;;;;;11.90;4.73;;;;;;;;;;5038012;28;21934;-75
2023/12/23 13:37:10;;;;;;;4.93;2.20;;;;;;;;;;5049760;28;20434;-69
2023/12/23 13:39:39;;;;;;;4.67;1.60;;;;;;;;;;5047696;28;20429;-72
2023/12/23 13:42:07;;;;;;;6.57;1.70;;;;;;;;;;5064133;28;20428;-76
2023/12/23 13:44:36;;;;;;;7.07;2.43;;;;;;;;;;5065496;28;20962;-72
2023/12/23 13:47:05;;;;;;;18.33;8.63;;;;;;;;;;5050052;28;20444;-72
2023/12/23 13:49:33;;;;;;;15.90;5.50;;;;;;;;;;5066932;28;20484;-73
2023/12/23 13:52:02;;;;;;;16.53;6.47;;;;;;;;;;5067884;28;20463;-72
2023/12/23 13:54:29;;;;;;;3.83;1.70;;;;;;;;;;5067239;28;20480;-75
2023/12/23 13:56:56;;;;;;;7.30;3.10;;;;;;;;;;5085474;28;20412;-75
2023/12/23 13:59:23;;;;;;;15.53;7.27;;;;;;;;;;5051447;28;20428;-73
2023/12/23 14:01:50;;;;;;;9.40;4.00;;;;;;;;;;5086290;28;20428;-73
2023/12/23 14:04:17;;;;;;;10.70;4.97;;;;;;;;;;5085866;28;20464;-73
2023/12/23 14:06:43;;;;;;;4.53;2.10;;;;;;;;;;5067484;28;20491;-73
2023/12/23 14:09:10;;;;;;;6.37;3.20;;;;;;;;;;5050697;28;20797;-73
2023/12/23 14:11:37;;;;;;;7.07;3.60;;;;;;;;;;5085754;28;20776;-75
2023/12/23 14:14:04;;;;;;;5.10;2.37;;;;;;;;;;5085788;28;20747;-76
2023/12/23 14:16:32;;;;;;;6.80;2.30;;;;;;;;;;5051016;28;20757;-70
2023/12/23 14:18:59;;;;;;;10.37;4.50;;;;;;;;;;5067079;28;20434;-72
2023/12/23 14:21:26;;;;;;;8.57;3.73;;;;;;;;;;5067334;28;20736;-72
2023/12/23 14:23:53;;;;;;;5.03;2.17;;;;;;;;;;5085699;28;20438;-70
2023/12/23 14:26:20;;;;;;;6.27;2.20;;;;;;;;;;5085221;28;20422;-72
2023/12/23 14:28:47;;;;;;;7.10;2.40;;;;;;;;;;5085224;28;20485;-73
2023/12/23 14:31:14;;;;;;;4.60;2.23;;;;;;;;;;5050182;28;20423;-73
2023/12/23 14:33:40;;;;;;;11.10;2.80;;;;;;;;;;5050696;28;20507;-75
2023/12/23 14:36:09;;;;;;;7.17;3.10;;;;;;;;;;5073399;28;22299;-72
2023/12/23 14:38:36;;;;;;;7.93;3.73;;;;;;;;;;5067431;28;20423;-73
2023/12/23 14:41:03;;;;;;;8.13;3.27;;;;;;;;;;5067378;28;20952;-72
2023/12/23 14:43:30;;;;;;;7.67;3.00;;;;;;;;;;5050745;28;20445;-72
2023/12/23 14:45:57;;;;;;;9.20;2.40;;;;;;;;;;5085507;28;20470;-72
2023/12/23 14:48:24;;;;;;;6.77;2.13;;;;;;;;;;5084862;28;20472;-73
2023/12/23 14:50:51;;;;;;;5.83;2.60;;;;;;;;;;5093291;28;20455;-72
2023/12/23 14:53:18;;;;;;;7.90;2.60;;;;;;;;;;5076213;28;20423;-72
2023/12/23 14:55:45;;;;;;;5.77;2.30;;;;;;;;;;5075757;28;20973;-72
2023/12/23 14:58:12;;;;;;;7.93;3.23;;;;;;;;;;5093912;28;20423;-72
2023/12/23 15:00:39;;;;;;;6.93;2.87;;;;;;;;;;5076186;28;20415;-73
2023/12/23 15:03:06;;;;;;;7.43;3.40;;;;;;;;;;5096478;28;20476;-73
2023/12/23 15:05:33;;;;;;;10.67;4.13;;;;;;;;;;5063132;28;20454;-73
2023/12/23 15:08:00;;;;;;;11.20;3.80;;;;;;;;;;5079815;28;20420;-75
2023/12/23 15:10:27;;;;;;;6.70;3.40;;;;;;;;;;5079825;28;20471;-73
2023/12/23 15:12:56;;;;;;;8.10;3.10;;;;;;;;;;5097508;28;21013;-73
2023/12/23 15:15:23;;;;;;;7.17;3.23;;;;;;;;;;5063417;28;20476;-73
2023/12/23 15:17:50;;;;;;;8.77;4.27;;;;;;;;;;5079680;28;20419;-73
2023/12/23 15:20:16;;;;;;;5.80;2.70;;;;;;;;;;5079119;28;20415;-73
2023/12/23 15:22:44;;;;;;;43.57;16.00;;;;;;;;;;5079624;28;20431;-74
2023/12/23 15:25:11;;;;;;;38.67;13.40;;;;;;;;;;5079714;28;20771;-72
2023/12/23 15:27:39;;;;;;;13.77;5.93;;;;;;;;;;5063118;28;20455;-73
2023/12/23 15:30:06;;;;;;;7.57;4.60;;;;;;;;;;5063672;28;20453;-72
2023/12/23 15:32:33;;;;;;;5.83;3.43;;;;;;;;;;5063096;28;20483;-71
2023/12/23 15:35:00;;;;;;;8.27;3.57;;;;;;;;;;5079484;28;20411;-71
2023/12/23 15:37:27;;;;;;;11.77;4.93;;;;;;;;;;5079996;28;20430;-71
2023/12/23 15:39:54;;;;;;;14.97;7.07;;;;;;;;;;5097067;28;20466;-71
2023/12/23 15:42:21;;;;;;;14.60;4.97;;;;;;;;;;5096919;28;20510;-72